createdAt,value
2018-06-12T00:01:57.726Z,8.97
2018-06-12T00:04:25.607Z,9.50
2018-06-12T00:06:53.538Z,15.90
2018-06-12T00:09:22.407Z,10.80
2018-06-12T00:11:50.294Z,9.37
2018-06-12T00:14:18.316Z,10.70
2018-06-12T00:16:46.192Z,10.90
2018-06-12T00:19:14.419Z,8.03
2018-06-12T00:21:42.307Z,12.87
2018-06-12T00:24:10.382Z,10.27
2018-06-12T00:26:38.274Z,9.83
2018-06-12T00:29:06.003Z,8.00
2018-06-12T00:31:33.901Z,10.93
2018-06-12T00:34:01.714Z,13.10
2018-06-12T00:36:29.751Z,13.90
2018-06-12T00:38:57.653Z,15.30
2018-06-12T00:41:25.543Z,10.90
2018-06-12T00:43:53.471Z,11.73
2018-06-12T00:46:21.388Z,11.57
2018-06-12T00:48:49.346Z,13.80
2018-06-12T00:51:17.320Z,10.20
2018-06-12T00:53:46.259Z,13.47
2018-06-12T00:56:20.477Z,11.10
2018-06-12T00:58:48.227Z,14.90
2018-06-12T01:01:17.485Z,18.33
2018-06-12T01:03:45.403Z,22.03
2018-06-12T01:06:13.296Z,12.50
2018-06-12T01:08:41.565Z,15.97
2018-06-12T01:11:10.146Z,13.93
2018-06-12T01:13:38.202Z,12.50
2018-06-12T01:16:06.803Z,14.03
2018-06-12T01:18:35.433Z,17.50
2018-06-12T01:21:03.593Z,19.80
2018-06-12T01:23:31.454Z,16.97
2018-06-12T01:25:59.358Z,12.30
2018-06-12T01:28:27.261Z,14.07
2018-06-12T01:30:55.718Z,13.57
2018-06-12T01:33:23.455Z,17.17
2018-06-12T01:35:51.317Z,13.50
2018-06-12T01:38:19.237Z,13.03
2018-06-12T01:40:47.145Z,18.27
2018-06-12T01:43:15.096Z,19.80
2018-06-12T01:45:42.938Z,18.60
2018-06-12T01:48:11.031Z,14.77
2018-06-12T01:50:38.916Z,18.63
2018-06-12T01:53:06.823Z,21.17
2018-06-12T01:55:34.687Z,23.30
2018-06-12T01:58:02.531Z,16.43
2018-06-12T02:00:30.494Z,15.43
2018-06-12T02:02:58.617Z,14.40
2018-06-12T02:05:26.560Z,12.80
2018-06-12T02:07:54.350Z,15.40
2018-06-12T02:10:22.237Z,15.97
2018-06-12T02:12:50.129Z,18.70
2018-06-12T02:15:18.202Z,18.97
2018-06-12T02:17:46.070Z,16.83
2018-06-12T02:20:13.978Z,12.70
2018-06-12T02:22:41.927Z,14.13
2018-06-12T02:25:09.815Z,15.00
2018-06-12T02:27:37.606Z,23.53
2018-06-12T02:30:05.508Z,14.77
2018-06-12T02:32:34.630Z,11.70
2018-06-12T02:35:02.535Z,19.00
2018-06-12T02:37:30.434Z,15.23
2018-06-12T02:39:58.334Z,16.60
2018-06-12T02:42:26.331Z,18.80
2018-06-12T02:44:54.202Z,13.87
2018-06-12T02:47:22.310Z,15.50
2018-06-12T02:49:50.239Z,19.53
2018-06-12T02:52:18.790Z,13.30
2018-06-12T02:54:46.893Z,27.13
2018-06-12T02:57:14.781Z,16.63
2018-06-12T02:59:42.707Z,16.27
2018-06-12T03:02:10.467Z,11.60
2018-06-12T03:04:38.927Z,10.27
2018-06-12T03:07:06.801Z,16.50
2018-06-12T03:09:34.703Z,10.03
2018-06-12T03:12:02.684Z,21.97
2018-06-12T03:14:30.534Z,13.03
2018-06-12T03:16:58.268Z,14.10
2018-06-12T03:19:27.003Z,7.67
2018-06-12T03:21:54.956Z,12.50
2018-06-12T03:24:22.867Z,8.37
2018-06-12T03:26:50.779Z,13.43
2018-06-12T03:29:19.342Z,11.43
2018-06-12T03:31:47.330Z,10.60
2018-06-12T03:34:15.753Z,12.80
2018-06-12T03:36:43.653Z,16.73
2018-06-12T03:39:11.573Z,10.30
2018-06-12T03:41:39.302Z,9.50
2018-06-12T03:44:07.260Z,9.80
2018-06-12T03:46:35.367Z,10.33
2018-06-12T03:49:03.543Z,12.50
2018-06-12T03:51:31.309Z,8.40
2018-06-12T03:53:59.240Z,10.53
2018-06-12T03:56:27.925Z,13.23
2018-06-12T03:58:55.856Z,15.63
2018-06-12T04:01:24.468Z,12.70
2018-06-12T04:03:52.362Z,6.47
2018-06-12T04:06:20.228Z,13.33
2018-06-12T04:08:48.089Z,11.50
2018-06-12T04:11:15.977Z,7.93
2018-06-12T04:13:43.727Z,8.43
2018-06-12T04:16:11.604Z,9.80
2018-06-12T04:18:39.381Z,11.03
2018-06-12T04:21:07.148Z,8.23
2018-06-12T04:23:38.639Z,11.33
2018-06-12T04:26:07.403Z,7.60
2018-06-12T04:28:35.663Z,9.13
2018-06-12T04:31:03.570Z,13.10
2018-06-12T04:33:33.857Z,9.17
2018-06-12T04:36:02.537Z,8.57
2018-06-12T04:38:30.656Z,9.20
2018-06-12T04:41:01.874Z,6.80
2018-06-12T04:43:29.673Z,8.53
2018-06-12T04:46:01.803Z,8.53
2018-06-12T04:48:36.869Z,7.60
2018-06-12T04:51:04.806Z,6.60
2018-06-12T04:53:43.256Z,13.67
2018-06-12T04:56:23.777Z,9.40
2018-06-12T04:58:56.637Z,12.33
2018-06-12T05:01:30.421Z,11.40
2018-06-12T05:03:58.217Z,7.90
2018-06-12T05:06:31.182Z,7.37
2018-06-12T05:09:01.148Z,11.13
2018-06-12T05:11:30.899Z,11.53
2018-06-12T05:14:00.202Z,13.80
2018-06-12T05:16:33.194Z,5.97
2018-06-12T05:19:06.916Z,5.77
2018-06-12T05:21:36.225Z,8.13
2018-06-12T05:24:07.021Z,12.67
2018-06-12T05:26:37.346Z,20.33
2018-06-12T05:29:06.579Z,8.47
2018-06-12T05:31:34.541Z,10.30
2018-06-12T05:34:03.187Z,9.73
2018-06-12T05:36:33.642Z,6.93
2018-06-12T05:39:02.282Z,10.03
2018-06-12T05:41:31.975Z,7.57
2018-06-12T05:43:59.922Z,6.50
2018-06-12T05:46:27.880Z,5.37
2018-06-12T05:48:59.606Z,7.23
2018-06-12T05:51:28.699Z,8.00
2018-06-12T05:53:58.413Z,6.23
2018-06-12T05:56:26.315Z,6.13
2018-06-12T05:58:58.157Z,6.27
2018-06-12T06:01:27.949Z,7.03
2018-06-12T06:03:56.960Z,7.47
2018-06-12T06:06:39.251Z,7.07
2018-06-12T06:09:11.068Z,5.47
2018-06-12T06:11:39.592Z,5.67
2018-06-12T06:14:11.234Z,8.40
2018-06-12T06:16:39.226Z,5.40
2018-06-12T06:19:07.680Z,11.83
2018-06-12T06:21:36.201Z,4.80
2018-06-12T06:24:05.815Z,8.70
2018-06-12T06:26:34.313Z,8.07
2018-06-12T06:29:04.158Z,7.27
2018-06-12T06:31:32.775Z,28.57
2018-06-12T06:34:02.101Z,9.23
2018-06-12T06:36:30.641Z,9.50
2018-06-12T06:38:59.498Z,11.70
2018-06-12T06:41:27.675Z,8.40
2018-06-12T06:43:55.595Z,9.17
2018-06-12T06:46:24.123Z,9.47
2018-06-12T06:48:51.976Z,12.03
2018-06-12T06:51:20.938Z,10.23
2018-06-12T06:53:48.861Z,7.10
2018-06-12T06:56:17.298Z,10.87
2018-06-12T06:58:45.374Z,20.17
2018-06-12T07:01:13.282Z,11.27
2018-06-12T07:03:41.370Z,11.27
2018-06-12T07:06:10.129Z,14.13
2018-06-12T07:08:38.763Z,14.57
2018-06-12T07:11:07.344Z,8.20
2018-06-12T07:13:35.479Z,12.63
2018-06-12T07:16:03.511Z,7.50
2018-06-12T07:18:31.406Z,11.40
2018-06-12T07:21:04.717Z,10.20
2018-06-12T07:23:32.974Z,9.47
2018-06-12T07:26:01.494Z,9.20
2018-06-12T07:28:29.641Z,6.47
2018-06-12T07:30:57.518Z,7.77
2018-06-12T07:33:25.420Z,8.23
2018-06-12T07:35:53.748Z,10.23
2018-06-12T07:38:22.219Z,7.33
2018-06-12T07:40:50.113Z,10.60
2018-06-12T07:43:18.074Z,6.93
2018-06-12T07:45:45.947Z,10.93
2018-06-12T07:48:14.093Z,7.57
2018-06-12T07:50:42.014Z,9.83
2018-06-12T07:53:09.918Z,9.20
2018-06-12T07:55:38.122Z,14.23
2018-06-12T07:58:06.347Z,5.60
2018-06-12T08:00:34.268Z,8.77
2018-06-12T08:03:02.311Z,6.73
2018-06-12T08:05:30.195Z,9.47
2018-06-12T08:07:58.097Z,6.10
2018-06-12T08:10:26.342Z,11.70
2018-06-12T08:12:54.227Z,5.83
2018-06-12T08:15:22.093Z,5.83
2018-06-12T08:17:50.359Z,5.63
2018-06-12T08:20:18.428Z,6.10
2018-06-12T08:22:46.544Z,7.13
2018-06-12T08:25:14.527Z,6.80
2018-06-12T08:27:42.463Z,9.30
2018-06-12T08:30:10.404Z,4.73
2018-06-12T08:32:39.104Z,7.23
2018-06-12T08:35:06.991Z,5.47
2018-06-12T08:37:34.904Z,5.57
2018-06-12T08:40:02.863Z,9.33
2018-06-12T08:42:30.735Z,7.10
2018-06-12T08:44:58.629Z,7.70
2018-06-12T08:47:26.498Z,6.70
2018-06-12T08:49:55.196Z,12.10
2018-06-12T08:52:24.869Z,5.87
2018-06-12T08:54:53.686Z,8.83
2018-06-12T08:57:21.802Z,7.20
2018-06-12T08:59:49.815Z,9.90
2018-06-12T09:02:17.717Z,8.30
2018-06-12T09:04:45.608Z,8.43
2018-06-12T09:07:13.838Z,11.10
2018-06-12T09:09:42.454Z,7.20
2018-06-12T09:12:10.343Z,8.60
2018-06-12T09:14:38.871Z,6.63
2018-06-12T09:17:06.981Z,7.43
2018-06-12T09:19:34.884Z,5.83
2018-06-12T09:22:02.813Z,7.63
2018-06-12T09:24:31.289Z,4.63
2018-06-12T09:26:59.147Z,6.20
2018-06-12T09:29:26.989Z,4.90
2018-06-12T09:31:55.474Z,7.33
2018-06-12T09:34:24.461Z,7.60
2018-06-12T09:36:52.210Z,7.93
2018-06-12T09:39:20.576Z,5.37
2018-06-12T09:41:48.451Z,5.30
2018-06-12T09:44:16.335Z,5.20
2018-06-12T09:46:44.202Z,11.30
2018-06-12T09:49:11.939Z,5.03
2018-06-12T09:51:39.845Z,6.13
2018-06-12T09:54:08.198Z,8.80
2018-06-12T09:56:36.091Z,5.90
2018-06-12T09:59:04.588Z,4.73
2018-06-12T10:01:32.457Z,6.90
2018-06-12T10:04:00.375Z,6.33
2018-06-12T10:06:28.221Z,4.03
2018-06-12T10:08:56.090Z,6.90
2018-06-12T10:11:23.986Z,8.00
2018-06-12T10:13:51.870Z,4.17
2018-06-12T10:16:19.797Z,6.70
2018-06-12T10:18:47.705Z,3.87
2018-06-12T10:21:15.492Z,5.07
2018-06-12T10:23:43.343Z,3.43
2018-06-12T10:26:11.775Z,3.97
2018-06-12T10:28:39.611Z,4.33
2018-06-12T10:31:07.459Z,3.53
2018-06-12T10:33:35.347Z,5.73
2018-06-12T10:36:03.394Z,4.00
2018-06-12T10:38:31.264Z,4.70
2018-06-12T10:40:59.733Z,5.03
2018-06-12T10:43:27.607Z,4.40
2018-06-12T10:45:55.330Z,4.00
2018-06-12T10:48:23.214Z,5.70
2018-06-12T10:50:51.084Z,3.63
2018-06-12T10:53:19.106Z,4.10
2018-06-12T10:55:46.987Z,5.80
2018-06-12T10:58:14.855Z,4.47
2018-06-12T11:00:42.750Z,4.57
2018-06-12T11:03:10.639Z,5.23
2018-06-12T11:05:38.545Z,7.47
2018-06-12T11:08:06.490Z,4.57
2018-06-12T11:10:34.256Z,4.13
2018-06-12T11:13:01.977Z,5.53
2018-06-12T11:15:30.809Z,3.20
2018-06-12T11:17:58.521Z,4.63
2018-06-12T11:20:26.409Z,5.07
2018-06-12T11:22:54.280Z,5.70
2018-06-12T11:25:22.159Z,6.60
2018-06-12T11:27:50.091Z,4.40
2018-06-12T11:30:17.958Z,5.10
2018-06-12T11:32:45.834Z,4.70
2018-06-12T11:35:13.724Z,10.60
2018-06-12T11:37:41.923Z,7.63
2018-06-12T11:40:10.034Z,3.77
2018-06-12T11:42:37.925Z,3.80
2018-06-12T11:45:05.853Z,4.70
2018-06-12T11:47:33.738Z,4.60
2018-06-12T11:50:01.642Z,3.20
2018-06-12T11:52:29.539Z,2.90
2018-06-12T11:54:57.299Z,3.93
2018-06-12T11:57:25.166Z,3.00
2018-06-12T11:59:53.053Z,3.70
2018-06-12T12:02:20.952Z,5.27
2018-06-12T12:04:49.564Z,4.30
2018-06-12T12:07:17.571Z,3.23
2018-06-12T12:09:45.424Z,3.00
2018-06-12T12:12:13.503Z,4.53
2018-06-12T12:14:42.187Z,4.23
2018-06-12T12:17:09.904Z,4.50
2018-06-12T12:19:37.823Z,8.53
2018-06-12T12:22:06.018Z,4.20
2018-06-12T12:24:33.872Z,3.77
2018-06-12T12:27:01.787Z,4.47
2018-06-12T12:29:29.533Z,5.10
2018-06-12T12:31:57.982Z,5.63
2018-06-12T12:34:25.897Z,6.97
2018-06-12T12:36:53.789Z,4.87
2018-06-12T12:39:21.912Z,5.47
2018-06-12T12:41:50.778Z,5.23
2018-06-12T12:44:18.666Z,10.23
2018-06-12T12:46:46.876Z,6.10
2018-06-12T12:49:14.787Z,6.73
2018-06-12T12:51:42.669Z,11.17
2018-06-12T12:54:10.555Z,7.90
2018-06-12T12:56:38.443Z,7.47
2018-06-12T12:59:06.515Z,8.17
2018-06-12T13:01:34.464Z,7.03
2018-06-12T13:04:02.947Z,7.43
2018-06-12T13:06:31.494Z,6.70
2018-06-12T13:08:59.424Z,7.40
2018-06-12T13:11:27.359Z,6.27
2018-06-12T13:13:55.261Z,7.00
2018-06-12T13:16:23.082Z,8.70
2018-06-12T13:18:51.726Z,6.40
2018-06-12T13:21:20.025Z,8.10
2018-06-12T13:23:49.085Z,7.17
2018-06-12T13:26:16.932Z,6.80
2018-06-12T13:28:45.374Z,6.10
2018-06-12T13:31:13.346Z,9.47
2018-06-12T13:33:41.273Z,8.70
2018-06-12T13:36:09.969Z,11.00
2018-06-12T13:38:37.897Z,7.83
2018-06-12T13:41:05.871Z,9.73
2018-06-12T13:43:33.738Z,7.63
2018-06-12T13:46:02.200Z,6.87
2018-06-12T13:48:30.082Z,7.50
2018-06-12T13:50:57.995Z,8.27
2018-06-12T13:53:25.753Z,8.90
2018-06-12T13:55:54.669Z,7.53
2018-06-12T13:58:23.461Z,7.27
2018-06-12T14:00:51.444Z,6.40
2018-06-12T14:03:20.336Z,12.53
2018-06-12T14:05:48.254Z,9.53
2018-06-12T14:08:17.099Z,9.20
2018-06-12T14:10:44.919Z,8.30
2018-06-12T14:13:12.794Z,7.10
2018-06-12T14:15:40.989Z,7.60
2018-06-12T14:18:09.142Z,8.60
2018-06-12T14:20:37.106Z,7.90
2018-06-12T14:23:04.896Z,7.23
2018-06-12T14:25:33.483Z,9.33
2018-06-12T14:28:02.222Z,8.50
2018-06-12T14:30:30.711Z,10.87
2018-06-12T14:32:58.620Z,10.40
2018-06-12T14:35:26.699Z,11.30
2018-06-12T14:37:55.559Z,11.43
2018-06-12T14:40:24.011Z,10.20
2018-06-12T14:42:52.015Z,9.90
2018-06-12T14:45:19.917Z,9.17
2018-06-12T14:47:48.338Z,12.60
2018-06-12T14:50:16.665Z,10.20
2018-06-12T14:52:44.534Z,13.83
2018-06-12T14:55:12.414Z,9.93
2018-06-12T14:57:40.267Z,12.90
2018-06-12T15:00:08.701Z,11.47
2018-06-12T15:02:36.429Z,10.60
2018-06-12T15:05:04.307Z,12.93
2018-06-12T15:07:32.737Z,16.90
2018-06-12T15:10:01.020Z,11.87
2018-06-12T15:12:29.380Z,10.50
2018-06-12T15:14:57.855Z,16.67
2018-06-12T15:17:25.740Z,16.30
2018-06-12T15:19:54.161Z,13.43
2018-06-12T15:22:22.140Z,13.10
2018-06-12T15:24:50.217Z,21.73
2018-06-12T15:27:18.184Z,14.80
2018-06-12T15:29:46.043Z,13.57
2018-06-12T15:32:14.654Z,13.03
2018-06-12T15:34:48.737Z,16.83
2018-06-12T15:37:17.707Z,14.40
2018-06-12T15:39:45.578Z,15.07
2018-06-12T15:42:14.049Z,14.43
2018-06-12T15:44:42.335Z,19.53
2018-06-12T15:47:10.243Z,16.17
2018-06-12T15:49:38.735Z,13.80
2018-06-12T15:52:06.617Z,14.40
2018-06-12T15:54:34.486Z,13.80
2018-06-12T15:57:02.232Z,16.30
2018-06-12T15:59:31.540Z,13.90
2018-06-12T16:01:59.940Z,16.63
2018-06-12T16:04:28.407Z,13.37
2018-06-12T16:06:56.820Z,18.93
2018-06-12T16:09:24.669Z,16.57
2018-06-12T16:11:52.422Z,16.27
2018-06-12T16:14:20.161Z,16.70
2018-06-12T16:16:48.067Z,14.30
2018-06-12T16:19:16.546Z,13.03
2018-06-12T16:21:44.300Z,13.73
2018-06-12T16:24:13.870Z,14.67
2018-06-12T16:26:41.795Z,14.80
2018-06-12T16:29:10.082Z,15.53
2018-06-12T16:31:38.201Z,11.97
2018-06-12T16:34:06.320Z,15.77
2018-06-12T16:36:34.271Z,16.90
2018-06-12T16:39:02.369Z,17.47
2018-06-12T16:41:30.262Z,15.00
2018-06-12T16:43:59.544Z,14.70
2018-06-12T16:46:27.433Z,10.70
2018-06-12T16:48:55.388Z,5.43
2018-06-12T16:51:23.647Z,10.43
2018-06-12T16:53:52.125Z,9.53
2018-06-12T16:56:21.774Z,8.23
2018-06-12T16:58:49.554Z,15.50
2018-06-12T17:01:18.036Z,12.57
2018-06-12T17:03:46.230Z,10.40
2018-06-12T17:06:14.149Z,12.07
2018-06-12T17:08:42.044Z,10.37
2018-06-12T17:11:09.932Z,14.37
2018-06-12T17:13:39.537Z,23.60
2018-06-12T17:16:07.267Z,18.13
2018-06-12T17:18:38.976Z,19.63
2018-06-12T17:21:11.728Z,12.10
2018-06-12T17:23:48.456Z,12.50
2018-06-12T17:26:23.261Z,17.43
2018-06-12T17:29:08.996Z,11.40
2018-06-12T17:31:36.904Z,6.53
2018-06-12T17:34:05.462Z,9.77
2018-06-12T17:36:46.203Z,8.07
2018-06-12T17:39:17.236Z,11.33
2018-06-12T17:41:51.325Z,8.70
2018-06-12T17:44:22.682Z,15.40
2018-06-12T17:46:51.346Z,14.10
2018-06-12T17:49:25.884Z,9.23
2018-06-12T17:51:53.826Z,7.37
2018-06-12T17:54:21.764Z,12.83
2018-06-12T17:56:50.111Z,10.30
2018-06-12T17:59:19.868Z,8.40
2018-06-12T18:01:50.899Z,9.50
2018-06-12T18:04:27.679Z,11.60
2018-06-12T18:07:00.731Z,6.87
2018-06-12T18:09:31.535Z,8.10
2018-06-12T18:12:02.942Z,8.00
2018-06-12T18:14:31.455Z,13.40
2018-06-12T18:17:03.638Z,9.93
2018-06-12T18:19:34.569Z,12.70
2018-06-12T18:22:06.115Z,8.23
2018-06-12T18:24:34.596Z,5.93
2018-06-12T18:27:07.917Z,11.60
2018-06-12T18:29:37.788Z,12.73
2018-06-12T18:32:09.549Z,8.17
2018-06-12T18:34:40.670Z,10.03
2018-06-12T18:37:12.887Z,10.63
2018-06-12T18:39:43.349Z,9.77
2018-06-12T18:42:14.550Z,7.30
2018-06-12T18:44:46.378Z,10.13
2018-06-12T18:47:16.074Z,7.77
2018-06-12T18:49:45.428Z,12.67
2018-06-12T18:52:19.287Z,14.30
2018-06-12T18:54:51.238Z,8.20
2018-06-12T18:57:21.782Z,11.37
2018-06-12T18:59:52.482Z,11.90
2018-06-12T19:02:25.333Z,10.37
2018-06-12T19:05:01.153Z,10.97
2018-06-12T19:07:33.983Z,8.53
2018-06-12T19:10:01.998Z,15.43
2018-06-12T19:12:32.638Z,9.50
2018-06-12T19:15:01.834Z,20.70
2018-06-12T19:17:38.449Z,11.23
2018-06-12T19:20:06.819Z,10.27
2018-06-12T19:22:40.352Z,10.77
2018-06-12T19:25:08.249Z,13.40
2018-06-12T19:27:36.239Z,12.93
2018-06-12T19:30:04.160Z,17.20
2018-06-12T19:32:35.756Z,13.87
2018-06-12T19:35:11.257Z,11.37
2018-06-12T19:37:44.275Z,22.87
2018-06-12T19:40:19.451Z,12.47
2018-06-12T19:42:54.660Z,13.03
2018-06-12T19:45:28.168Z,12.97
2018-06-12T19:48:02.231Z,13.20
2018-06-12T19:50:36.899Z,15.60
2018-06-12T19:53:09.193Z,9.77
2018-06-12T19:55:49.176Z,8.50
2018-06-12T19:58:21.369Z,11.00
2018-06-12T20:00:50.886Z,13.10
2018-06-12T20:03:25.005Z,9.67
2018-06-12T20:05:58.367Z,10.50
2018-06-12T20:08:33.471Z,15.20
2018-06-12T20:11:11.118Z,8.23
2018-06-12T20:13:42.689Z,10.47
2018-06-12T20:16:17.174Z,11.00
2018-06-12T20:18:51.680Z,13.50
2018-06-12T20:21:24.381Z,12.87
2018-06-12T20:23:55.130Z,17.17
2018-06-12T20:26:23.032Z,17.77
2018-06-12T20:28:50.924Z,14.93
2018-06-12T20:31:25.886Z,19.17
2018-06-12T20:33:59.794Z,13.93
2018-06-12T20:36:27.696Z,17.10
2018-06-12T20:39:04.071Z,12.80
2018-06-12T20:41:32.026Z,10.10
2018-06-12T20:44:06.629Z,11.33
2018-06-12T20:46:40.814Z,14.33
2018-06-12T20:49:12.603Z,12.93
2018-06-12T20:51:43.120Z,9.03
2018-06-12T20:54:11.034Z,9.70
2018-06-12T20:56:43.902Z,8.50
2018-06-12T20:59:24.683Z,7.83
2018-06-12T21:01:56.407Z,7.47
2018-06-12T21:04:27.369Z,9.27
2018-06-12T21:06:56.713Z,6.83
2018-06-12T21:09:24.349Z,9.20
2018-06-12T21:11:52.247Z,12.20
2018-06-12T21:14:20.103Z,9.60
2018-06-12T21:16:47.981Z,7.30
2018-06-12T21:19:17.086Z,6.30
2018-06-12T21:21:50.630Z,15.10
2018-06-12T21:24:29.837Z,12.10
2018-06-12T21:26:57.765Z,9.50
2018-06-12T21:29:27.605Z,20.63
2018-06-12T21:31:57.268Z,9.33
2018-06-12T21:34:28.526Z,13.63
2018-06-12T21:37:04.719Z,15.20
2018-06-12T21:39:37.826Z,13.37
2018-06-12T21:42:13.736Z,12.47
2018-06-12T21:44:52.630Z,12.17
2018-06-12T21:47:20.618Z,17.57
2018-06-12T21:49:48.502Z,13.20
2018-06-12T21:52:16.355Z,13.80
2018-06-12T21:54:49.847Z,9.93
2018-06-12T21:57:19.166Z,14.30
2018-06-12T21:59:55.866Z,13.10
2018-06-12T22:02:30.962Z,11.90
2018-06-12T22:05:08.447Z,8.97
2018-06-12T22:07:50.013Z,12.30
2018-06-12T22:10:28.986Z,15.57
2018-06-12T22:13:04.049Z,14.77
2018-06-12T22:15:33.673Z,17.47
2018-06-12T22:18:01.553Z,10.43
2018-06-12T22:20:29.439Z,14.13
2018-06-12T22:22:57.323Z,14.93
2018-06-12T22:25:32.126Z,13.43
2018-06-12T22:28:00.988Z,15.60
2018-06-12T22:30:28.819Z,11.70
2018-06-12T22:32:56.697Z,13.93
2018-06-12T22:35:24.527Z,15.70
2018-06-12T22:37:52.430Z,14.90
2018-06-12T22:40:20.289Z,16.47
2018-06-12T22:42:48.920Z,12.30
2018-06-12T22:45:16.784Z,21.50
2018-06-12T22:47:45.254Z,15.87
2018-06-12T22:50:12.958Z,8.53
2018-06-12T22:52:40.810Z,8.83
2018-06-12T22:55:08.654Z,12.43
2018-06-12T22:57:36.500Z,16.03
2018-06-12T23:00:20.183Z,12.20
2018-06-12T23:02:48.483Z,16.77
2018-06-12T23:05:16.355Z,24.70
2018-06-12T23:07:45.634Z,12.57
2018-06-12T23:10:14.144Z,18.30
2018-06-12T23:12:41.963Z,18.77
2018-06-12T23:15:09.704Z,17.10
2018-06-12T23:17:37.674Z,18.27
2018-06-12T23:20:11.166Z,19.03
2018-06-12T23:22:38.876Z,24.20
2018-06-12T23:25:06.717Z,25.53
2018-06-12T23:27:34.574Z,25.17
2018-06-12T23:30:02.377Z,26.47
2018-06-12T23:32:30.250Z,26.83
2018-06-12T23:34:58.706Z,23.93
2018-06-12T23:37:26.601Z,24.13
2018-06-12T23:39:54.468Z,27.13
2018-06-12T23:42:22.865Z,32.03
2018-06-12T23:44:57.046Z,19.40
2018-06-12T23:47:24.898Z,21.53
2018-06-12T23:49:52.761Z,21.50
2018-06-12T23:52:20.585Z,17.83
2018-06-12T23:54:48.487Z,14.53
2018-06-12T23:57:17.334Z,14.57
2018-06-12T23:59:45.216Z,12.97
